createdAt,value
2022-12-06T00:01:09.564Z,5.10
2022-12-06T00:03:40.054Z,5.20
2022-12-06T00:06:09.876Z,4.90
2022-12-06T00:08:38.334Z,5.00
2022-12-06T00:11:07.700Z,4.90
2022-12-06T00:13:36.262Z,4.90
2022-12-06T00:16:05.308Z,5.00
2022-12-06T00:18:35.462Z,5.00
2022-12-06T00:21:09.371Z,5.00
2022-12-06T00:23:38.323Z,5.00
2022-12-06T00:26:07.292Z,4.90
2022-12-06T00:28:35.330Z,5.00
2022-12-06T00:31:05.734Z,5.00
2022-12-06T00:33:34.740Z,4.90
2022-12-06T00:36:05.222Z,5.00
2022-12-06T00:38:36.433Z,4.90
2022-12-06T00:41:06.860Z,4.90
2022-12-06T00:43:35.947Z,4.90
2022-12-06T00:46:05.280Z,4.90
2022-12-06T00:48:33.669Z,4.90
2022-12-06T00:51:01.934Z,4.90
2022-12-06T00:53:30.488Z,4.90
2022-12-06T00:55:59.833Z,4.90
2022-12-06T00:58:27.870Z,5.00
2022-12-06T01:00:55.967Z,4.90
2022-12-06T01:03:24.356Z,4.90
2022-12-06T01:05:52.687Z,5.00
2022-12-06T01:08:21.229Z,4.90
2022-12-06T01:10:55.848Z,4.90
2022-12-06T01:13:25.234Z,5.00
2022-12-06T01:15:54.212Z,4.90
2022-12-06T01:18:22.464Z,4.90
2022-12-06T01:20:50.308Z,4.90
2022-12-06T01:23:18.187Z,4.90
2022-12-06T01:25:53.232Z,4.90
2022-12-06T01:28:21.155Z,4.80
2022-12-06T01:30:50.427Z,4.90
2022-12-06T01:33:18.425Z,4.80
2022-12-06T01:35:46.358Z,4.80
2022-12-06T01:38:14.208Z,4.80
2022-12-06T01:40:43.710Z,4.80
2022-12-06T01:43:33.703Z,4.90
2022-12-06T01:46:08.117Z,4.80
2022-12-06T01:48:36.709Z,4.80
2022-12-06T01:51:05.990Z,4.80
2022-12-06T01:53:34.351Z,4.80
2022-12-06T01:56:02.784Z,4.80
2022-12-06T01:58:36.811Z,4.80
2022-12-06T02:01:07.083Z,4.80
2022-12-06T02:03:35.575Z,4.90
2022-12-06T02:06:05.723Z,4.70
2022-12-06T02:08:34.652Z,4.70
2022-12-06T02:11:03.908Z,4.80
2022-12-06T02:13:33.329Z,4.70
2022-12-06T02:16:14.328Z,4.70
2022-12-06T02:18:48.265Z,4.70
2022-12-06T02:21:24.420Z,4.70
2022-12-06T02:24:21.275Z,4.70
2022-12-06T02:26:52.153Z,4.70
2022-12-06T02:29:52.285Z,4.70
2022-12-06T02:32:27.227Z,4.70
2022-12-06T02:35:00.352Z,4.70
2022-12-06T02:37:34.240Z,4.70
2022-12-06T02:40:06.385Z,4.70
2022-12-06T02:42:39.597Z,4.70
2022-12-06T02:45:13.140Z,4.70
2022-12-06T02:47:43.962Z,4.70
2022-12-06T02:50:15.845Z,4.80
2022-12-06T02:52:47.056Z,4.70
2022-12-06T02:55:17.776Z,4.70
2022-12-06T02:57:48.060Z,4.70
2022-12-06T03:00:39.489Z,4.70
2022-12-06T03:03:44.605Z,4.70
2022-12-06T03:06:39.909Z,4.70
2022-12-06T03:09:19.419Z,4.70
2022-12-06T03:11:56.706Z,4.70
2022-12-06T03:14:26.507Z,4.80
2022-12-06T03:17:03.266Z,4.80
2022-12-06T03:19:34.491Z,4.70
2022-12-06T03:22:07.310Z,4.80
2022-12-06T03:24:38.165Z,5.30
2022-12-06T03:27:09.404Z,4.70
2022-12-06T03:29:41.976Z,4.70
2022-12-06T03:32:13.294Z,5.10
2022-12-06T03:34:45.212Z,4.70
2022-12-06T03:37:16.662Z,4.80
2022-12-06T03:39:49.244Z,4.70
2022-12-06T03:42:18.741Z,4.70
2022-12-06T03:44:47.977Z,4.70
2022-12-06T03:47:20.204Z,4.60
2022-12-06T03:49:51.524Z,4.70
2022-12-06T03:52:19.391Z,4.60
2022-12-06T03:54:47.369Z,4.60
2022-12-06T03:57:15.375Z,4.70
2022-12-06T03:59:43.198Z,4.50
2022-12-06T04:02:11.101Z,4.60
2022-12-06T04:04:39.088Z,4.60
2022-12-06T04:07:08.550Z,4.60
2022-12-06T04:10:02.579Z,4.90
2022-12-06T04:12:49.064Z,4.60
2022-12-06T04:15:17.183Z,4.50
2022-12-06T04:18:02.817Z,4.50
2022-12-06T04:20:52.588Z,4.50
2022-12-06T04:23:21.321Z,4.50
2022-12-06T04:25:49.444Z,4.40
2022-12-06T04:28:34.653Z,4.50
2022-12-06T04:31:22.386Z,4.40
2022-12-06T04:34:08.054Z,4.40
2022-12-06T04:36:53.588Z,4.40
2022-12-06T04:39:22.863Z,4.40
2022-12-06T04:42:08.608Z,4.30
2022-12-06T04:44:36.514Z,4.30
2022-12-06T04:47:04.823Z,4.30
2022-12-06T04:49:32.870Z,4.30
2022-12-06T04:52:00.970Z,4.30
2022-12-06T04:54:31.179Z,4.30
2022-12-06T04:56:59.795Z,4.30
2022-12-06T04:59:28.485Z,4.20
2022-12-06T05:01:57.296Z,4.30
2022-12-06T05:04:25.496Z,4.50
2022-12-06T05:06:53.473Z,4.20
2022-12-06T05:09:21.517Z,4.30
2022-12-06T05:11:50.716Z,4.20
2022-12-06T05:14:18.615Z,4.20
2022-12-06T05:16:46.489Z,4.20
2022-12-06T05:19:15.165Z,4.20
2022-12-06T05:21:43.121Z,4.10
2022-12-06T05:24:11.243Z,4.10
2022-12-06T05:26:39.192Z,4.10
2022-12-06T05:29:08.392Z,4.10
2022-12-06T05:31:36.474Z,4.10
2022-12-06T05:34:04.427Z,4.10
2022-12-06T05:36:32.308Z,4.30
2022-12-06T05:39:00.162Z,4.10
2022-12-06T05:41:28.197Z,4.00
2022-12-06T05:43:56.059Z,4.00
2022-12-06T05:46:25.321Z,4.00
2022-12-06T05:48:53.262Z,4.10
2022-12-06T05:51:21.077Z,4.10
2022-12-06T05:53:48.918Z,4.00
2022-12-06T05:56:16.820Z,3.90
2022-12-06T05:58:44.727Z,4.00
2022-12-06T06:01:12.678Z,4.00
2022-12-06T06:03:47.084Z,4.00
2022-12-06T06:06:15.866Z,4.10
2022-12-06T06:08:43.854Z,4.10
2022-12-06T06:11:12.099Z,4.10
2022-12-06T06:13:40.032Z,4.10
2022-12-06T06:16:08.859Z,4.10
2022-12-06T06:18:36.800Z,4.10
2022-12-06T06:21:06.308Z,4.10
2022-12-06T06:23:34.549Z,4.10
2022-12-06T06:26:07.797Z,4.10
2022-12-06T06:28:35.694Z,4.10
2022-12-06T06:31:03.940Z,4.50
2022-12-06T06:33:31.802Z,4.10
2022-12-06T06:35:59.693Z,4.20
2022-12-06T06:38:28.898Z,4.20
2022-12-06T06:40:56.722Z,4.20
2022-12-06T06:43:24.586Z,4.10
2022-12-06T06:45:56.216Z,4.20
2022-12-06T06:48:25.872Z,4.30
2022-12-06T06:50:57.333Z,4.30
2022-12-06T06:53:28.066Z,4.30
2022-12-06T06:55:56.302Z,4.30
2022-12-06T06:58:24.293Z,4.30
2022-12-06T07:00:55.050Z,4.30
2022-12-06T07:03:24.021Z,4.30
2022-12-06T07:05:55.840Z,4.30
2022-12-06T07:08:24.702Z,4.30
2022-12-06T07:10:54.274Z,4.30
2022-12-06T07:13:24.221Z,4.40
2022-12-06T07:15:52.644Z,4.40
2022-12-06T07:18:21.078Z,4.40
2022-12-06T07:20:50.411Z,4.40
2022-12-06T07:23:18.251Z,4.40
2022-12-06T07:25:46.096Z,4.40
2022-12-06T07:28:15.279Z,4.40
2022-12-06T07:30:43.279Z,4.40
2022-12-06T07:33:11.137Z,4.50
2022-12-06T07:38:26.797Z,4.50
2022-12-06T07:41:04.368Z,4.50
2022-12-06T07:43:51.834Z,4.50
2022-12-06T07:46:19.849Z,4.50
2022-12-06T07:48:47.831Z,4.50
2022-12-06T07:51:15.667Z,4.50
2022-12-06T07:53:43.703Z,4.60
2022-12-06T07:56:11.842Z,4.50
2022-12-06T07:58:41.962Z,4.50
2022-12-06T08:01:09.848Z,4.50
2022-12-06T08:03:38.348Z,4.50
2022-12-06T08:06:06.726Z,4.50
2022-12-06T08:08:34.636Z,4.50
2022-12-06T08:11:03.155Z,4.50
2022-12-06T08:13:31.250Z,4.60
2022-12-06T08:16:00.514Z,4.60
2022-12-06T08:18:28.515Z,4.60
2022-12-06T08:20:56.358Z,4.60
2022-12-06T08:23:26.867Z,4.70
2022-12-06T08:25:59.188Z,4.60
2022-12-06T08:28:27.362Z,4.70
2022-12-06T08:31:01.239Z,4.80
2022-12-06T08:33:33.838Z,4.80
2022-12-06T08:36:01.693Z,4.90
2022-12-06T08:38:29.900Z,4.80
2022-12-06T08:40:57.754Z,4.90
2022-12-06T08:43:25.641Z,4.90
2022-12-06T08:45:54.036Z,4.90
2022-12-06T08:48:22.273Z,4.90
2022-12-06T08:50:51.544Z,5.00
2022-12-06T08:53:19.383Z,5.00
2022-12-06T08:56:01.985Z,5.00
2022-12-06T08:58:30.713Z,5.00
2022-12-06T09:00:58.672Z,5.00
2022-12-06T09:03:26.701Z,5.00
2022-12-06T09:05:55.919Z,5.10
2022-12-06T09:08:23.992Z,5.10
2022-12-06T09:10:52.005Z,5.10
2022-12-06T09:13:19.834Z,5.20
2022-12-06T09:15:47.760Z,5.10
2022-12-06T09:18:15.738Z,5.20
2022-12-06T09:20:44.021Z,5.20
2022-12-06T09:23:13.313Z,5.20
2022-12-06T09:25:42.536Z,5.20
2022-12-06T09:28:11.499Z,5.20
2022-12-06T09:30:39.349Z,5.30
2022-12-06T09:33:07.224Z,5.30
2022-12-06T09:35:36.130Z,5.20
2022-12-06T09:38:04.249Z,5.30
2022-12-06T09:40:42.556Z,5.30
2022-12-06T09:43:27.360Z,5.20
2022-12-06T09:46:11.928Z,5.30
2022-12-06T09:48:59.679Z,5.30
2022-12-06T09:51:46.838Z,5.20
2022-12-06T09:54:33.730Z,5.30
2022-12-06T09:57:08.340Z,5.30
2022-12-06T09:59:49.045Z,5.30
2022-12-06T10:02:33.032Z,5.30
2022-12-06T10:05:24.404Z,5.30
2022-12-06T10:07:59.891Z,5.30
2022-12-06T10:10:37.912Z,5.30
2022-12-06T10:13:13.995Z,5.30
2022-12-06T10:15:53.626Z,5.30
2022-12-06T10:18:44.422Z,5.30
2022-12-06T10:21:21.272Z,5.30
2022-12-06T10:24:02.148Z,5.20
2022-12-06T10:26:38.710Z,5.30
2022-12-06T10:29:17.861Z,5.30
2022-12-06T10:31:56.007Z,5.30
2022-12-06T10:34:33.555Z,5.30
2022-12-06T10:37:09.323Z,5.40
2022-12-06T10:39:52.080Z,5.40
2022-12-06T10:42:30.726Z,5.40
2022-12-06T10:45:26.916Z,5.40
2022-12-06T10:47:56.029Z,5.30
2022-12-06T10:50:29.484Z,5.30
2022-12-06T10:53:02.997Z,5.40
2022-12-06T10:55:35.858Z,5.40
2022-12-06T10:58:14.297Z,5.40
2022-12-06T11:00:53.326Z,5.40
2022-12-06T11:03:25.184Z,5.40
2022-12-06T11:05:57.030Z,5.40
2022-12-06T11:08:29.507Z,5.40
2022-12-06T11:10:59.233Z,5.40
2022-12-06T11:13:36.367Z,5.60
2022-12-06T11:16:10.959Z,5.40
2022-12-06T11:18:39.372Z,5.40
2022-12-06T11:21:17.105Z,5.40
2022-12-06T11:23:53.232Z,5.40
2022-12-06T11:26:31.248Z,5.50
2022-12-06T11:29:05.787Z,5.40
2022-12-06T11:31:38.967Z,5.50
2022-12-06T11:34:17.110Z,5.40
2022-12-06T11:36:47.481Z,5.40
2022-12-06T11:39:16.778Z,5.40
2022-12-06T11:41:47.901Z,5.50
2022-12-06T11:44:20.358Z,5.40
2022-12-06T11:46:54.529Z,5.50
2022-12-06T11:49:28.596Z,5.40
2022-12-06T11:51:58.852Z,5.50
2022-12-06T11:54:32.726Z,5.40
2022-12-06T11:57:12.019Z,5.40
2022-12-06T11:59:39.887Z,5.50
2022-12-06T12:02:31.446Z,5.60
2022-12-06T12:05:10.129Z,5.40
2022-12-06T12:07:41.440Z,5.50
2022-12-06T12:10:31.503Z,5.50
2022-12-06T12:13:35.779Z,5.50
2022-12-06T12:16:07.393Z,5.50
2022-12-06T12:18:38.774Z,5.50
2022-12-06T12:21:08.393Z,5.40
2022-12-06T12:23:39.137Z,5.50
2022-12-06T12:26:14.885Z,5.60
2022-12-06T12:28:44.476Z,5.50
2022-12-06T12:31:19.550Z,5.50
2022-12-06T12:33:49.560Z,5.50
2022-12-06T12:36:23.052Z,5.50
2022-12-06T12:38:55.821Z,5.50
2022-12-06T12:41:29.360Z,5.50
2022-12-06T12:44:28.824Z,5.70
2022-12-06T12:46:55.920Z,5.50
2022-12-06T12:49:31.101Z,5.50
2022-12-06T12:52:00.230Z,5.50
2022-12-06T12:54:31.663Z,5.50
2022-12-06T12:57:01.772Z,5.50
2022-12-06T12:59:37.284Z,5.50
2022-12-06T13:02:15.810Z,5.50
2022-12-06T13:04:48.762Z,5.50
2022-12-06T13:07:21.664Z,5.50
2022-12-06T13:10:01.446Z,5.50
2022-12-06T13:12:34.051Z,5.50
2022-12-06T13:15:07.529Z,5.50
2022-12-06T13:17:38.474Z,5.50
2022-12-06T13:20:21.897Z,5.60
2022-12-06T13:22:52.847Z,5.50
2022-12-06T13:25:20.696Z,5.40
2022-12-06T13:27:52.405Z,5.50
2022-12-06T13:30:22.192Z,5.40
2022-12-06T13:32:54.793Z,5.60
2022-12-06T13:35:28.467Z,5.40
2022-12-06T13:37:58.723Z,5.50
2022-12-06T13:40:40.684Z,5.40
2022-12-06T13:43:56.105Z,5.50
2022-12-06T13:46:27.979Z,5.40
2022-12-06T13:48:56.999Z,5.50
2022-12-06T13:51:58.023Z,5.40
2022-12-06T13:54:34.496Z,5.40
2022-12-06T13:57:19.308Z,5.40
2022-12-06T13:59:47.449Z,5.40
2022-12-06T14:02:52.187Z,5.50
2022-12-06T14:08:35.286Z,5.50
2022-12-06T14:11:23.703Z,5.50
2022-12-06T14:14:03.270Z,5.50
2022-12-06T14:16:36.604Z,5.50
2022-12-06T14:19:14.824Z,5.50
2022-12-06T14:21:44.772Z,5.50
2022-12-06T14:24:33.196Z,5.50
2022-12-06T14:27:12.056Z,5.40
2022-12-06T14:29:41.164Z,5.40
2022-12-06T14:32:09.825Z,5.40
2022-12-06T14:34:38.139Z,5.60
2022-12-06T14:37:20.936Z,5.40
2022-12-06T14:39:54.088Z,5.40
2022-12-06T14:42:40.334Z,5.40
2022-12-06T14:45:14.778Z,5.30
2022-12-06T14:47:44.490Z,5.40
2022-12-06T14:50:25.827Z,5.40
2022-12-06T14:52:59.077Z,5.40
2022-12-06T14:55:30.221Z,5.40
2022-12-06T14:58:00.548Z,5.40
2022-12-06T15:00:35.334Z,5.40
2022-12-06T15:03:22.678Z,5.40
2022-12-06T15:06:15.185Z,5.40
2022-12-06T15:08:44.181Z,5.40
2022-12-06T15:11:49.988Z,5.30
2022-12-06T15:14:19.711Z,5.40
2022-12-06T15:16:58.044Z,5.40
2022-12-06T15:19:26.198Z,5.40
2022-12-06T15:21:55.072Z,5.30
2022-12-06T15:24:24.484Z,5.30
2022-12-06T15:26:54.305Z,5.30
2022-12-06T15:29:22.253Z,5.30
2022-12-06T15:31:52.929Z,5.30
2022-12-06T15:34:25.191Z,5.30
2022-12-06T15:37:08.913Z,5.30
2022-12-06T15:39:41.387Z,5.20
2022-12-06T15:42:16.985Z,5.30
2022-12-06T15:44:49.106Z,5.30
2022-12-06T15:47:18.215Z,5.30
2022-12-06T15:49:46.426Z,5.30
2022-12-06T15:52:17.244Z,5.30
2022-12-06T15:54:45.545Z,5.30
2022-12-06T15:57:14.810Z,5.50
2022-12-06T15:59:42.718Z,5.20
2022-12-06T16:02:15.820Z,5.30
2022-12-06T16:04:44.426Z,5.20
2022-12-06T16:07:18.393Z,5.30
2022-12-06T16:09:46.572Z,5.30
2022-12-06T16:12:15.811Z,5.20
2022-12-06T16:14:43.724Z,5.30
2022-12-06T16:17:11.883Z,5.20
2022-12-06T16:19:57.415Z,5.20
2022-12-06T16:22:45.228Z,5.20
2022-12-06T16:25:12.096Z,5.20
2022-12-06T16:27:41.272Z,5.20
2022-12-06T16:30:10.182Z,5.20
2022-12-06T16:32:38.005Z,5.20
2022-12-06T16:35:06.227Z,5.20
2022-12-06T16:37:34.072Z,5.20
2022-12-06T16:40:01.935Z,5.20
2022-12-06T16:42:29.875Z,5.20
2022-12-06T16:44:59.235Z,5.20
2022-12-06T16:49:54.002Z,5.20
2022-12-06T16:52:22.071Z,5.20
2022-12-06T16:54:49.908Z,5.20
2022-12-06T16:57:19.416Z,5.20
2022-12-06T16:59:47.316Z,5.20
2022-12-06T17:02:26.535Z,5.20
2022-12-06T17:04:54.910Z,5.20
2022-12-06T17:07:23.014Z,5.20
2022-12-06T17:09:50.841Z,5.20
2022-12-06T17:12:18.752Z,5.20
2022-12-06T17:14:46.805Z,5.20
2022-12-06T17:17:16.523Z,5.20
2022-12-06T17:19:45.722Z,5.50
2022-12-06T17:22:16.209Z,5.20
2022-12-06T17:24:44.162Z,5.20
2022-12-06T17:27:14.754Z,5.20
2022-12-06T17:29:43.654Z,5.10
2022-12-06T17:32:11.805Z,5.20
2022-12-06T17:34:39.674Z,5.10
2022-12-06T17:37:09.082Z,5.10
2022-12-06T17:39:37.126Z,5.10
2022-12-06T17:42:23.244Z,5.50
2022-12-06T17:44:51.537Z,5.10
2022-12-06T17:47:19.411Z,5.10
2022-12-06T17:49:47.364Z,5.10
2022-12-06T17:52:16.639Z,5.10
2022-12-06T17:54:44.619Z,5.10
2022-12-06T17:57:16.132Z,5.10
2022-12-06T17:59:44.581Z,5.10
2022-12-06T18:02:15.779Z,5.10
2022-12-06T18:04:44.874Z,5.10
2022-12-06T18:07:13.255Z,5.10
2022-12-06T18:09:42.509Z,5.10
2022-12-06T18:12:11.003Z,5.20
2022-12-06T18:14:38.966Z,5.10
2022-12-06T18:17:06.904Z,5.10
2022-12-06T18:19:35.115Z,5.10
2022-12-06T18:22:03.420Z,5.10
2022-12-06T18:24:36.165Z,5.10
2022-12-06T18:27:06.239Z,5.10
2022-12-06T18:29:35.050Z,5.10
2022-12-06T18:32:03.771Z,5.10
2022-12-06T18:34:37.461Z,5.10
2022-12-06T18:37:10.520Z,5.10
2022-12-06T18:39:41.143Z,5.10
2022-12-06T18:42:10.300Z,5.10
2022-12-06T18:44:40.816Z,5.10
2022-12-06T18:47:08.616Z,5.10
2022-12-06T18:49:36.545Z,5.10
2022-12-06T18:52:06.761Z,5.10
2022-12-06T18:54:34.568Z,5.10
2022-12-06T18:57:02.376Z,5.10
2022-12-06T18:59:37.535Z,5.10
2022-12-06T19:02:05.458Z,5.40
2022-12-06T19:04:33.618Z,5.10
2022-12-06T19:07:01.587Z,5.10
2022-12-06T19:09:29.385Z,5.10
2022-12-06T19:11:57.258Z,5.10
2022-12-06T19:14:25.111Z,5.20
2022-12-06T19:16:54.287Z,5.10
2022-12-06T19:19:26.751Z,5.10
2022-12-06T19:21:55.481Z,5.10
2022-12-06T19:24:25.096Z,5.10
2022-12-06T19:26:53.891Z,5.10
2022-12-06T19:29:22.166Z,5.10
2022-12-06T19:31:50.300Z,5.10
2022-12-06T19:34:21.762Z,5.10
2022-12-06T19:36:50.404Z,5.00
2022-12-06T19:39:19.278Z,5.10
2022-12-06T19:42:07.588Z,5.10
2022-12-06T19:44:35.803Z,5.10
2022-12-06T19:47:03.653Z,5.10
2022-12-06T19:49:32.790Z,5.10
2022-12-06T19:52:00.701Z,5.10
2022-12-06T19:54:30.076Z,5.10
2022-12-06T19:56:59.885Z,5.10
2022-12-06T19:59:29.509Z,5.10
2022-12-06T20:01:58.327Z,5.10
2022-12-06T20:04:28.424Z,5.10
2022-12-06T20:06:57.826Z,5.10
2022-12-06T20:09:28.206Z,5.10
2022-12-06T20:12:02.656Z,5.10
2022-12-06T20:14:33.695Z,5.10
2022-12-06T20:17:06.142Z,5.10
2022-12-06T20:19:34.625Z,5.10
2022-12-06T20:22:05.998Z,5.10
2022-12-06T20:24:37.120Z,5.10
2022-12-06T20:27:05.164Z,5.10
2022-12-06T20:29:33.015Z,5.00
2022-12-06T20:32:07.123Z,5.10
2022-12-06T20:34:35.279Z,5.10
2022-12-06T20:37:06.315Z,5.10
2022-12-06T20:39:36.412Z,5.10
2022-12-06T20:42:05.903Z,5.00
2022-12-06T20:44:34.187Z,5.00
2022-12-06T20:47:02.073Z,5.00
2022-12-06T20:49:29.988Z,5.00
2022-12-06T20:51:59.538Z,5.00
2022-12-06T20:54:31.160Z,5.00
2022-12-06T20:57:06.258Z,5.00
2022-12-06T20:59:34.248Z,5.00
2022-12-06T21:02:02.350Z,5.00
2022-12-06T21:04:30.260Z,5.00
2022-12-06T21:06:58.528Z,5.00
2022-12-06T21:09:27.768Z,5.00
2022-12-06T21:11:55.571Z,5.00
2022-12-06T21:14:23.443Z,5.00
2022-12-06T21:16:51.266Z,5.00
2022-12-06T21:19:20.443Z,5.00
2022-12-06T21:21:50.420Z,5.00
2022-12-06T21:24:20.339Z,5.00
2022-12-06T21:26:50.429Z,5.00
2022-12-06T21:29:21.667Z,5.10
2022-12-06T21:31:51.744Z,5.10
2022-12-06T21:34:19.857Z,5.00
2022-12-06T21:36:47.721Z,5.00
2022-12-06T21:39:15.887Z,5.00
2022-12-06T21:41:44.326Z,5.00
2022-12-06T21:44:16.027Z,5.00
2022-12-06T21:46:43.878Z,5.00
2022-12-06T21:49:12.794Z,5.10
2022-12-06T21:51:40.577Z,5.10
2022-12-06T21:54:08.553Z,5.10
2022-12-06T21:56:36.391Z,5.10
2022-12-06T21:59:04.225Z,5.00
2022-12-06T22:01:40.766Z,5.00
2022-12-06T22:04:08.632Z,5.00
2022-12-06T22:06:37.295Z,5.00
2022-12-06T22:09:06.486Z,5.00
2022-12-06T22:11:35.475Z,5.00
2022-12-06T22:14:04.796Z,5.00
2022-12-06T22:16:34.059Z,5.00
2022-12-06T22:19:02.398Z,5.00
2022-12-06T22:21:32.575Z,5.00
2022-12-06T22:24:00.794Z,5.00
2022-12-06T22:26:30.737Z,5.00
2022-12-06T22:28:59.638Z,5.00
2022-12-06T22:31:29.911Z,5.00
2022-12-06T22:33:59.290Z,5.00
2022-12-06T22:36:28.554Z,5.00
2022-12-06T22:38:57.880Z,5.00
2022-12-06T22:41:26.073Z,5.00
2022-12-06T22:43:55.582Z,5.00
2022-12-06T22:46:24.012Z,5.00
2022-12-06T22:48:51.848Z,5.00
2022-12-06T22:51:22.884Z,5.00
2022-12-06T22:53:57.122Z,5.00
2022-12-06T22:56:25.990Z,5.00
2022-12-06T22:58:54.478Z,5.00
2022-12-06T23:01:25.489Z,5.00
2022-12-06T23:03:54.105Z,5.00
2022-12-06T23:06:25.980Z,5.00
2022-12-06T23:08:54.776Z,5.00
2022-12-06T23:11:23.945Z,5.00
2022-12-06T23:13:51.984Z,4.90
2022-12-06T23:16:21.886Z,5.00
2022-12-06T23:18:50.593Z,5.00
2022-12-06T23:21:20.715Z,5.00
2022-12-06T23:23:51.465Z,4.90
2022-12-06T23:26:21.430Z,4.90
2022-12-06T23:28:49.814Z,5.00
2022-12-06T23:31:19.282Z,4.90
2022-12-06T23:33:47.928Z,4.90
2022-12-06T23:36:18.898Z,4.90
2022-12-06T23:38:46.766Z,4.90
2022-12-06T23:41:18.064Z,4.90
2022-12-06T23:43:46.054Z,4.90
2022-12-06T23:46:21.803Z,4.90
2022-12-06T23:48:50.216Z,4.90
2022-12-06T23:51:20.776Z,4.80
2022-12-06T23:53:52.043Z,4.90
2022-12-06T23:56:22.795Z,4.80
2022-12-06T23:58:51.548Z,4.90
